createdAt,value
2018-05-16T00:01:27.090Z,19.85
2018-05-16T00:03:54.966Z,20.70
2018-05-16T00:06:22.705Z,18.20
2018-05-16T00:08:50.454Z,19.52
2018-05-16T00:11:18.228Z,20.70
2018-05-16T00:13:45.963Z,18.98
2018-05-16T00:16:13.730Z,18.42
2018-05-16T00:18:41.472Z,19.85
2018-05-16T00:21:09.394Z,20.55
2018-05-16T00:23:37.975Z,20.67
2018-05-16T00:26:06.654Z,20.42
2018-05-16T00:28:34.518Z,21.30
2018-05-16T00:31:03.206Z,21.17
2018-05-16T00:33:31.070Z,19.58
2018-05-16T00:35:58.901Z,21.73
2018-05-16T00:38:26.696Z,21.60
2018-05-16T00:40:54.660Z,20.08
2018-05-16T00:43:23.313Z,18.15
2018-05-16T00:45:51.121Z,20.05
2018-05-16T00:48:18.973Z,25.05
2018-05-16T00:50:58.609Z,18.55
2018-05-16T00:53:27.190Z,20.58
2018-05-16T00:55:55.779Z,19.42
2018-05-16T00:58:23.632Z,21.52
2018-05-16T01:00:52.215Z,22.05
2018-05-16T01:03:20.082Z,19.40
2018-05-16T01:05:47.948Z,19.40
2018-05-16T01:08:15.781Z,19.55
2018-05-16T01:10:43.672Z,20.77
2018-05-16T01:13:11.538Z,20.25
2018-05-16T01:15:40.219Z,21.08
2018-05-16T01:18:08.799Z,21.00
2018-05-16T01:20:36.570Z,20.90
2018-05-16T01:23:04.323Z,20.08
2018-05-16T01:25:32.127Z,19.80
2018-05-16T01:27:59.901Z,20.73
2018-05-16T01:30:27.815Z,20.12
2018-05-16T01:32:56.370Z,21.27
2018-05-16T01:35:24.260Z,19.70
2018-05-16T01:37:52.840Z,20.23
2018-05-16T01:40:20.704Z,21.65
2018-05-16T01:42:49.225Z,19.67
2018-05-16T01:45:17.045Z,20.25
2018-05-16T01:47:44.911Z,21.35
2018-05-16T01:50:12.778Z,20.77
2018-05-16T01:52:40.638Z,20.83
2018-05-16T01:55:08.503Z,21.45
2018-05-16T01:57:37.188Z,21.10
2018-05-16T02:00:05.769Z,19.67
2018-05-16T02:02:33.731Z,19.33
2018-05-16T02:05:01.499Z,20.33
2018-05-16T02:07:30.075Z,20.02
2018-05-16T02:09:57.940Z,19.87
2018-05-16T02:12:26.525Z,22.10
2018-05-16T02:14:54.387Z,20.90
2018-05-16T02:17:22.149Z,20.20
2018-05-16T02:19:50.833Z,21.87
2018-05-16T02:22:19.429Z,23.40
2018-05-16T02:24:47.243Z,24.40
2018-05-16T02:27:15.042Z,24.40
2018-05-16T02:29:43.721Z,27.85
2018-05-16T02:32:12.303Z,26.50
2018-05-16T02:34:40.167Z,29.33
2018-05-16T02:37:08.748Z,30.42
2018-05-16T02:39:36.488Z,29.90
2018-05-16T02:42:04.259Z,26.42
2018-05-16T02:44:32.004Z,27.80
2018-05-16T02:46:59.777Z,29.25
2018-05-16T02:49:27.525Z,33.53
2018-05-16T02:51:55.300Z,32.80
2018-05-16T02:54:23.073Z,31.45
2018-05-16T02:56:50.943Z,30.40
2018-05-16T02:59:19.524Z,30.80
2018-05-16T03:01:48.213Z,29.48
2018-05-16T03:04:16.077Z,32.38
2018-05-16T03:06:43.938Z,30.80
2018-05-16T03:09:11.763Z,32.60
2018-05-16T03:11:39.529Z,31.00
2018-05-16T03:14:07.439Z,34.65
2018-05-16T03:16:35.259Z,31.60
2018-05-16T03:19:03.160Z,28.73
2018-05-16T03:21:31.736Z,32.42
2018-05-16T03:24:00.422Z,32.55
2018-05-16T03:26:29.001Z,33.90
2018-05-16T03:28:57.685Z,34.40
2018-05-16T03:31:25.548Z,31.35
2018-05-16T03:33:54.231Z,35.50
2018-05-16T03:36:22.812Z,35.42
2018-05-16T03:38:50.676Z,34.83
2018-05-16T03:41:19.264Z,33.35
2018-05-16T03:43:47.852Z,37.70
2018-05-16T03:46:16.521Z,34.90
2018-05-16T03:48:44.388Z,34.55
2018-05-16T03:51:13.074Z,35.50
2018-05-16T03:53:40.934Z,36.30
2018-05-16T03:56:09.616Z,38.60
2018-05-16T03:58:49.071Z,41.30
2018-05-16T04:01:28.528Z,39.40
2018-05-16T04:17:22.505Z,38.00
2018-05-16T04:19:50.409Z,37.70
2018-05-16T04:22:18.268Z,37.15
2018-05-16T04:24:46.134Z,39.30
2018-05-16T04:27:13.999Z,41.67
2018-05-16T04:29:41.867Z,41.83
2018-05-16T04:32:09.724Z,41.30
2018-05-16T04:34:37.587Z,38.53
2018-05-16T04:37:05.453Z,38.00
2018-05-16T04:39:33.328Z,38.35
2018-05-16T04:42:01.899Z,40.83
2018-05-16T04:44:29.770Z,42.05
2018-05-16T04:46:57.629Z,40.72
2018-05-16T04:49:25.504Z,43.17
2018-05-16T04:51:53.355Z,41.37
2018-05-16T04:54:21.180Z,44.38
2018-05-16T04:56:49.083Z,41.28
2018-05-16T04:59:16.949Z,40.67
2018-05-16T05:01:45.632Z,42.72
2018-05-16T05:04:13.493Z,39.65
2018-05-16T05:06:41.361Z,38.85
2018-05-16T05:09:09.190Z,41.83
2018-05-16T05:11:37.187Z,35.35
2018-05-16T05:14:05.876Z,37.67
2018-05-16T05:16:33.699Z,37.28
2018-05-16T05:19:01.437Z,35.60
2018-05-16T05:21:30.294Z,37.78
2018-05-16T05:23:58.134Z,35.97
2018-05-16T05:26:25.864Z,36.20
2018-05-16T05:28:53.652Z,39.58
2018-05-16T05:31:21.433Z,35.70
2018-05-16T05:33:49.298Z,32.42
2018-05-16T05:36:17.061Z,32.95
2018-05-16T05:38:44.923Z,33.58
2018-05-16T05:41:12.662Z,32.97
2018-05-16T05:43:40.553Z,34.38
2018-05-16T05:46:08.413Z,34.92
2018-05-16T05:48:36.282Z,31.48
2018-05-16T05:51:04.146Z,31.00
2018-05-16T05:53:31.906Z,31.67
2018-05-16T05:55:59.772Z,30.67
2018-05-16T05:58:27.636Z,35.10
2018-05-16T06:00:55.499Z,36.22
2018-05-16T06:03:23.360Z,30.88
2018-05-16T06:05:52.054Z,33.33
2018-05-16T06:08:19.910Z,36.42
2018-05-16T06:10:47.771Z,33.15
2018-05-16T06:13:15.637Z,32.90
2018-05-16T06:15:43.705Z,33.55
2018-05-16T06:18:11.576Z,35.13
2018-05-16T06:20:39.435Z,33.58
2018-05-16T06:23:08.232Z,32.10
2018-05-16T06:25:36.190Z,31.83
2018-05-16T06:28:04.024Z,31.17
2018-05-16T06:30:31.922Z,33.40
2018-05-16T06:32:59.781Z,31.83
2018-05-16T06:35:27.528Z,30.60
2018-05-16T06:37:55.308Z,32.25
2018-05-16T06:40:23.100Z,29.52
2018-05-16T06:42:50.872Z,30.05
2018-05-16T06:45:19.371Z,28.15
2018-05-16T06:47:47.154Z,31.42
2018-05-16T06:50:14.936Z,26.87
2018-05-16T06:52:42.795Z,29.17
2018-05-16T06:55:10.555Z,28.65
2018-05-16T06:57:38.316Z,30.00
2018-05-16T07:00:06.088Z,29.05
2018-05-16T07:02:33.945Z,25.20
2018-05-16T07:05:01.808Z,25.17
2018-05-16T07:07:29.699Z,22.85
2018-05-16T07:09:57.535Z,24.80
2018-05-16T07:12:25.406Z,25.42
2018-05-16T07:14:53.966Z,27.27
2018-05-16T07:17:21.856Z,29.85
2018-05-16T07:19:49.666Z,32.35
2018-05-16T07:22:17.477Z,31.85
2018-05-16T07:24:45.305Z,33.58
2018-05-16T07:27:13.084Z,35.65
2018-05-16T07:29:40.967Z,32.50
2018-05-16T07:32:08.825Z,30.75
2018-05-16T07:34:36.691Z,31.62
2018-05-16T07:37:04.556Z,27.37
2018-05-16T07:39:32.419Z,27.55
2018-05-16T07:42:00.248Z,28.12
2018-05-16T07:44:27.986Z,27.45
2018-05-16T07:46:55.783Z,23.62
2018-05-16T07:49:23.674Z,26.73
2018-05-16T07:51:51.459Z,25.60
2018-05-16T07:54:19.214Z,26.65
2018-05-16T07:56:46.966Z,25.23
2018-05-16T07:59:14.739Z,24.55
2018-05-16T08:01:42.487Z,25.35
2018-05-16T08:04:10.273Z,24.83
2018-05-16T08:06:38.825Z,25.23
2018-05-16T08:09:06.686Z,24.48
2018-05-16T08:11:34.430Z,27.45
2018-05-16T08:14:02.228Z,24.87
2018-05-16T08:16:30.084Z,26.12
2018-05-16T08:18:57.940Z,25.00
2018-05-16T08:21:25.804Z,24.63
2018-05-16T08:23:53.688Z,25.23
2018-05-16T08:26:22.355Z,26.58
2018-05-16T08:28:52.569Z,24.80
2018-05-16T08:31:20.342Z,26.05
2018-05-16T08:33:48.195Z,22.50
2018-05-16T08:36:15.964Z,25.58
2018-05-16T08:38:43.698Z,24.50
2018-05-16T08:41:11.488Z,21.17
2018-05-16T08:43:39.219Z,21.77
2018-05-16T08:46:06.960Z,23.90
2018-05-16T08:48:34.723Z,22.50
2018-05-16T08:51:02.458Z,21.73
2018-05-16T08:53:30.985Z,22.48
2018-05-16T08:55:58.755Z,22.10
2018-05-16T08:58:26.519Z,19.15
2018-05-16T09:00:54.394Z,19.33
2018-05-16T09:03:22.258Z,14.85
2018-05-16T09:05:49.998Z,13.55
2018-05-16T09:08:17.799Z,15.77
2018-05-16T09:10:45.653Z,15.70
2018-05-16T09:13:13.435Z,15.30
2018-05-16T09:15:41.974Z,19.15
2018-05-16T09:18:09.753Z,15.75
2018-05-16T09:20:37.574Z,14.73
2018-05-16T09:23:05.309Z,15.70
2018-05-16T09:25:33.087Z,16.65
2018-05-16T09:28:00.906Z,16.87
2018-05-16T09:30:28.677Z,15.88
2018-05-16T09:32:56.446Z,16.05
2018-05-16T09:35:25.021Z,14.55
2018-05-16T09:37:52.882Z,16.70
2018-05-16T09:40:21.543Z,15.65
2018-05-16T09:42:49.244Z,13.20
2018-05-16T09:45:17.799Z,12.55
2018-05-16T09:47:45.656Z,12.80
2018-05-16T09:50:13.389Z,13.50
2018-05-16T09:52:41.181Z,12.48
2018-05-16T09:55:08.912Z,12.13
2018-05-16T09:57:36.807Z,12.82
2018-05-16T10:00:04.678Z,11.35
2018-05-16T10:02:32.534Z,11.73
2018-05-16T10:05:00.264Z,10.77
2018-05-16T10:07:28.177Z,13.07
2018-05-16T10:09:56.141Z,12.07
2018-05-16T10:12:23.996Z,12.55
2018-05-16T10:14:51.757Z,11.85
2018-05-16T10:17:19.618Z,12.65
2018-05-16T10:19:47.481Z,12.75
2018-05-16T10:22:15.214Z,11.38
2018-05-16T10:24:43.013Z,11.50
2018-05-16T10:27:10.745Z,12.25
2018-05-16T10:29:38.496Z,12.52
2018-05-16T10:32:06.235Z,12.65
2018-05-16T10:34:34.081Z,11.75
2018-05-16T10:37:01.771Z,10.07
2018-05-16T10:39:29.528Z,10.93
2018-05-16T10:41:57.333Z,11.85
2018-05-16T10:44:25.581Z,12.93
2018-05-16T10:46:53.370Z,11.50
2018-05-16T10:49:21.105Z,11.20
2018-05-16T10:51:49.012Z,7.68
2018-05-16T10:54:16.762Z,7.32
2018-05-16T10:56:44.597Z,7.30
2018-05-16T10:59:12.332Z,9.18
2018-05-16T11:01:40.847Z,9.10
2018-05-16T11:04:08.568Z,8.23
2018-05-16T11:06:37.521Z,8.73
2018-05-16T11:09:06.087Z,8.20
2018-05-16T11:11:33.978Z,7.87
2018-05-16T11:14:01.762Z,9.00
2018-05-16T11:16:30.263Z,8.60
2018-05-16T11:18:58.012Z,8.43
2018-05-16T11:21:26.569Z,8.20
2018-05-16T11:23:54.313Z,8.02
2018-05-16T11:26:22.052Z,6.90
2018-05-16T11:28:49.838Z,6.47
2018-05-16T11:31:17.560Z,6.18
2018-05-16T11:33:45.371Z,6.90
2018-05-16T11:36:13.112Z,6.80
2018-05-16T11:38:40.876Z,6.72
2018-05-16T11:41:08.627Z,5.97
2018-05-16T11:43:36.349Z,5.97
2018-05-16T11:46:04.099Z,7.30
2018-05-16T11:48:31.833Z,6.12
2018-05-16T11:50:59.581Z,7.62
2018-05-16T11:53:27.311Z,6.35
2018-05-16T11:55:55.127Z,6.07
2018-05-16T11:58:22.970Z,6.45
2018-05-16T12:00:50.734Z,6.97
2018-05-16T12:03:18.463Z,7.05
2018-05-16T12:05:46.257Z,5.62
2018-05-16T12:08:13.989Z,4.80
2018-05-16T12:10:41.748Z,5.65
2018-05-16T12:13:09.542Z,6.85
2018-05-16T12:15:37.406Z,6.50
2018-05-16T12:18:05.275Z,6.18
2018-05-16T12:20:33.138Z,7.80
2018-05-16T12:23:00.898Z,7.68
2018-05-16T12:25:28.759Z,7.20
2018-05-16T12:27:56.682Z,7.28
2018-05-16T12:30:24.413Z,7.03
2018-05-16T12:32:52.963Z,7.55
2018-05-16T12:35:20.705Z,9.13
2018-05-16T12:37:48.491Z,8.13
2018-05-16T12:40:16.357Z,8.52
2018-05-16T12:42:56.099Z,9.68
2018-05-16T12:45:23.976Z,9.68
2018-05-16T12:47:51.824Z,10.52
2018-05-16T12:50:19.586Z,9.88
2018-05-16T12:52:47.331Z,9.38
2018-05-16T12:55:15.100Z,11.40
2018-05-16T12:57:42.831Z,9.35
2018-05-16T13:00:10.644Z,14.38
2018-05-16T13:02:38.368Z,9.27
2018-05-16T13:05:06.166Z,7.53
2018-05-16T13:07:33.909Z,7.70
2018-05-16T13:10:01.644Z,8.43
2018-05-16T13:12:29.403Z,8.20
2018-05-16T13:14:57.132Z,9.50
2018-05-16T13:17:25.649Z,8.57
2018-05-16T13:19:53.388Z,11.30
2018-05-16T13:22:22.030Z,11.55
2018-05-16T13:24:49.763Z,13.38
2018-05-16T13:27:17.531Z,10.52
2018-05-16T13:29:45.280Z,10.93
2018-05-16T13:32:13.041Z,10.13
2018-05-16T13:34:40.813Z,10.00
2018-05-16T13:37:08.602Z,10.38
2018-05-16T13:39:36.341Z,9.93
2018-05-16T13:42:04.117Z,11.05
2018-05-16T13:44:31.879Z,10.15
2018-05-16T13:46:59.650Z,9.65
2018-05-16T13:49:27.519Z,9.07
2018-05-16T13:51:55.380Z,10.45
2018-05-16T13:54:23.245Z,9.05
2018-05-16T13:56:51.104Z,8.48
2018-05-16T13:59:18.932Z,8.63
2018-05-16T14:01:46.728Z,8.55
2018-05-16T14:04:14.549Z,6.90
2018-05-16T14:06:42.351Z,7.00
2018-05-16T14:09:10.218Z,6.28
2018-05-16T14:11:38.084Z,7.87
2018-05-16T14:14:05.947Z,8.18
2018-05-16T14:16:33.814Z,9.38
2018-05-16T14:19:01.550Z,9.45
2018-05-16T14:21:29.304Z,8.93
2018-05-16T14:23:57.063Z,9.48
2018-05-16T14:26:25.670Z,8.23
2018-05-16T14:28:53.432Z,7.65
2018-05-16T14:31:21.191Z,6.37
2018-05-16T14:33:48.917Z,8.00
2018-05-16T14:36:16.677Z,5.85
2018-05-16T14:38:44.585Z,5.80
2018-05-16T14:41:12.555Z,6.07
2018-05-16T14:43:40.379Z,4.82
2018-05-16T14:46:08.177Z,5.28
2018-05-16T14:48:36.009Z,4.68
2018-05-16T14:51:04.583Z,5.60
2018-05-16T14:53:32.796Z,5.45
2018-05-16T14:56:00.662Z,5.72
2018-05-16T14:58:28.526Z,4.95
2018-05-16T15:00:56.388Z,5.12
2018-05-16T15:03:24.180Z,3.45
2018-05-16T15:05:52.691Z,4.50
2018-05-16T15:08:20.421Z,3.62
2018-05-16T15:10:49.036Z,3.35
2018-05-16T15:13:16.836Z,4.22
2018-05-16T15:15:44.595Z,4.60
2018-05-16T15:18:12.335Z,4.60
2018-05-16T15:20:40.227Z,3.72
2018-05-16T15:23:08.088Z,4.32
2018-05-16T15:25:35.952Z,4.20
2018-05-16T15:28:03.917Z,4.55
2018-05-16T15:30:31.788Z,4.90
2018-05-16T15:32:59.672Z,5.20
2018-05-16T15:35:27.617Z,4.78
2018-05-16T15:37:55.480Z,4.53
2018-05-16T15:40:23.341Z,5.62
2018-05-16T15:42:51.207Z,5.60
2018-05-16T15:45:18.952Z,5.78
2018-05-16T15:47:46.712Z,4.95
2018-05-16T15:50:14.594Z,5.03
2018-05-16T15:52:42.349Z,5.75
2018-05-16T15:55:10.181Z,6.32
2018-05-16T15:57:38.081Z,6.30
2018-05-16T16:00:05.948Z,7.25
2018-05-16T16:02:33.754Z,7.78
2018-05-16T16:05:02.266Z,7.62
2018-05-16T16:07:30.053Z,8.60
2018-05-16T16:09:57.917Z,7.57
2018-05-16T16:12:25.780Z,8.38
2018-05-16T16:14:53.654Z,8.00
2018-05-16T16:17:21.509Z,7.90
2018-05-16T16:19:49.373Z,7.70
2018-05-16T16:22:17.235Z,7.97
2018-05-16T16:24:45.102Z,6.68
2018-05-16T16:27:12.932Z,6.60
2018-05-16T16:29:40.838Z,7.00
2018-05-16T16:32:08.814Z,8.00
2018-05-16T16:34:36.660Z,8.13
2018-05-16T16:37:04.525Z,7.43
2018-05-16T16:39:32.656Z,8.48
2018-05-16T16:42:00.502Z,8.07
2018-05-16T16:44:29.002Z,7.70
2018-05-16T16:46:56.785Z,7.97
2018-05-16T16:49:24.517Z,7.20
2018-05-16T16:51:52.290Z,6.50
2018-05-16T16:54:20.052Z,7.10
2018-05-16T16:56:47.822Z,7.40
2018-05-16T16:59:15.540Z,6.60
2018-05-16T17:01:44.031Z,7.15
2018-05-16T17:04:15.440Z,6.15
2018-05-16T17:06:43.164Z,6.97
2018-05-16T17:09:10.993Z,6.00
2018-05-16T17:11:39.514Z,6.78
2018-05-16T17:14:07.347Z,6.85
2018-05-16T17:16:35.089Z,6.60
2018-05-16T17:19:03.632Z,6.87
2018-05-16T17:21:31.378Z,7.62
2018-05-16T17:23:59.161Z,8.10
2018-05-16T17:26:26.908Z,8.23
2018-05-16T17:28:54.714Z,7.22
2018-05-16T17:31:22.527Z,7.15
2018-05-16T17:33:50.307Z,6.62
2018-05-16T17:36:18.083Z,7.35
2018-05-16T17:38:45.844Z,7.03
2018-05-16T17:41:13.611Z,7.43
2018-05-16T17:43:41.340Z,6.93
2018-05-16T17:46:09.156Z,6.60
2018-05-16T17:48:37.659Z,8.38
2018-05-16T17:51:05.455Z,7.25
2018-05-16T17:53:33.180Z,7.60
2018-05-16T17:56:00.976Z,7.28
2018-05-16T17:58:28.700Z,8.40
2018-05-16T18:00:56.556Z,7.37
2018-05-16T18:03:24.300Z,8.20
2018-05-16T18:05:52.834Z,7.37
2018-05-16T18:08:20.923Z,8.95
2018-05-16T18:10:48.663Z,7.65
2018-05-16T18:26:56.244Z,13.23
2018-05-16T18:29:24.120Z,13.57
2018-05-16T18:31:51.861Z,14.38
2018-05-16T18:34:19.625Z,12.75
2018-05-16T18:36:47.392Z,15.32
2018-05-16T18:39:15.125Z,16.58
2018-05-16T18:41:42.899Z,15.05
2018-05-16T18:44:10.667Z,16.65
2018-05-16T18:46:38.448Z,17.30
2018-05-16T18:49:06.176Z,15.95
2018-05-16T18:51:33.952Z,18.62
2018-05-16T18:54:01.739Z,20.10
2018-05-16T18:56:29.560Z,19.05
2018-05-16T18:58:57.333Z,19.30
2018-05-16T19:01:25.124Z,19.33
2018-05-16T19:03:52.852Z,23.23
2018-05-16T19:06:20.593Z,20.75
2018-05-16T19:08:49.210Z,25.75
2018-05-16T19:11:17.672Z,22.40
2018-05-16T19:13:45.448Z,23.42
2018-05-16T19:16:13.208Z,25.00
2018-05-16T19:18:40.973Z,27.37
2018-05-16T19:21:08.706Z,24.00
2018-05-16T19:23:36.476Z,23.98
2018-05-16T19:26:04.224Z,24.58
2018-05-16T19:28:32.763Z,23.08
2018-05-16T19:31:00.501Z,25.35
2018-05-16T19:33:28.316Z,24.90
2018-05-16T19:35:56.847Z,22.23
2018-05-16T19:38:24.638Z,22.98
2018-05-16T19:40:52.406Z,21.40
2018-05-16T19:43:20.173Z,21.58
2018-05-16T19:45:47.960Z,22.67
2018-05-16T19:48:15.689Z,21.70
2018-05-16T19:50:43.461Z,22.10
2018-05-16T19:53:11.193Z,20.60
2018-05-16T19:55:38.989Z,22.65
2018-05-16T19:58:07.501Z,21.02
2018-05-16T20:00:35.289Z,21.67
2018-05-16T20:03:03.028Z,21.17
2018-05-16T20:05:30.781Z,21.10
2018-05-16T20:07:58.599Z,21.37
2018-05-16T20:10:26.331Z,22.37
2018-05-16T20:12:54.089Z,20.90
2018-05-16T20:15:21.908Z,21.83
2018-05-16T20:17:50.149Z,23.65
2018-05-16T20:20:18.674Z,21.30
2018-05-16T20:22:46.623Z,21.55
2018-05-16T20:25:15.121Z,23.65
2018-05-16T20:27:42.987Z,22.92
2018-05-16T20:30:10.732Z,21.60
2018-05-16T20:32:39.222Z,22.13
2018-05-16T20:35:07.003Z,20.10
2018-05-16T20:37:34.725Z,18.92
2018-05-16T20:40:03.313Z,18.92
2018-05-16T20:42:31.031Z,17.25
2018-05-16T20:44:58.801Z,15.65
2018-05-16T20:47:26.596Z,16.58
2018-05-16T20:49:55.124Z,18.10
2018-05-16T20:52:22.884Z,18.87
2018-05-16T20:54:50.693Z,15.45
2018-05-16T20:57:19.009Z,16.60
2018-05-16T20:59:46.823Z,17.62
2018-05-16T21:02:14.807Z,19.12
2018-05-16T21:04:43.313Z,18.55
2018-05-16T21:07:12.040Z,17.80
2018-05-16T21:09:40.473Z,19.23
2018-05-16T21:12:08.289Z,18.23
2018-05-16T21:14:36.035Z,17.15
2018-05-16T21:17:04.681Z,17.48
2018-05-16T21:19:32.461Z,17.75
2018-05-16T21:22:00.297Z,16.08
2018-05-16T21:24:28.028Z,18.33
2018-05-16T21:26:55.802Z,17.55
2018-05-16T21:29:24.348Z,16.92
2018-05-16T21:31:52.086Z,14.57
2018-05-16T21:34:19.852Z,15.45
2018-05-16T21:36:47.584Z,14.77
2018-05-16T21:39:15.363Z,16.15
2018-05-16T21:41:43.112Z,15.10
2018-05-16T21:44:10.900Z,14.50
2018-05-16T21:46:38.645Z,14.38
2018-05-16T21:49:06.377Z,14.90
2018-05-16T21:51:34.942Z,14.10
2018-05-16T21:54:02.669Z,13.43
2018-05-16T21:56:30.708Z,12.55
2018-05-16T21:58:58.452Z,12.77
2018-05-16T22:01:27.157Z,15.77
2018-05-16T22:03:55.058Z,14.02
2018-05-16T22:06:22.888Z,13.80
2018-05-16T22:08:50.611Z,14.68
2018-05-16T22:11:19.163Z,15.65
2018-05-16T22:13:46.900Z,15.15
2018-05-16T22:16:14.624Z,16.87
2018-05-16T22:18:43.169Z,16.50
2018-05-16T22:21:10.899Z,16.55
2018-05-16T22:23:38.656Z,16.33
2018-05-16T22:26:06.388Z,15.52
2018-05-16T22:28:34.913Z,14.48
2018-05-16T22:31:08.312Z,15.82
2018-05-16T22:33:41.637Z,15.35
2018-05-16T22:36:14.952Z,14.95
2018-05-16T22:38:49.221Z,16.87
2018-05-16T22:41:22.541Z,14.80
2018-05-16T22:43:51.232Z,17.55
2018-05-16T22:46:19.789Z,17.67
2018-05-16T22:48:47.525Z,17.05
2018-05-16T22:51:15.305Z,17.23
2018-05-16T22:53:43.040Z,16.08
2018-05-16T22:56:10.817Z,17.95
2018-05-16T22:58:38.542Z,15.48
2018-05-16T23:01:06.298Z,17.75
2018-05-16T23:03:34.027Z,20.00
2018-05-16T23:06:01.784Z,18.65
2018-05-16T23:08:29.513Z,19.27
2018-05-16T23:10:57.301Z,19.58
2018-05-16T23:13:25.037Z,18.35
2018-05-16T23:15:52.793Z,20.55
2018-05-16T23:18:20.545Z,21.25
2018-05-16T23:20:48.273Z,19.55
2018-05-16T23:23:16.797Z,23.45
2018-05-16T23:25:44.519Z,22.52
2018-05-16T23:28:13.060Z,21.77
2018-05-16T23:30:40.802Z,24.10
2018-05-16T23:33:08.557Z,21.50
2018-05-16T23:35:36.308Z,22.87
2018-05-16T23:38:04.072Z,20.90
2018-05-16T23:40:31.799Z,21.42
2018-05-16T23:43:00.375Z,20.58
2018-05-16T23:45:28.877Z,18.80
2018-05-16T23:47:56.609Z,19.73
2018-05-16T23:50:24.373Z,22.10
2018-05-16T23:52:52.118Z,23.40
2018-05-16T23:55:19.873Z,20.98
2018-05-16T23:57:47.611Z,20.95
